Time;durP1;ratioP1;P1;durP2;ratioP2;P2;SDS_P1;SDS_P2;PMS_P1;PMS_P2;Temp;Humidity;BMP_temperature;BMP_pressure;BME280_temperature;BME280_humidity;BME280_pressure;Samples;Min_cycle;Max_cycle;Signal;HPM_P1;HPM_P2
2022/08/20 00:00:45;;;;;;;7.00;6.17;;;22.50;99.90;;;;;;4957851;28;20436;-80
2022/08/20 00:03:26;;;;;;;6.50;5.90;;;22.50;99.90;;;;;;4964109;28;20770;-82
2022/08/20 00:06:00;;;;;;;12.20;6.53;;;22.60;99.90;;;;;;4961661;28;20420;-82
2022/08/20 00:08:28;;;;;;;8.10;7.27;;;22.60;99.90;;;;;;4962596;28;20415;-82
2022/08/20 00:10:56;;;;;;;13.27;7.33;;;22.50;99.90;;;;;;4957182;28;20416;-81
2022/08/20 00:13:26;;;;;;;7.47;6.37;;;22.40;99.90;;;;;;4964929;28;20479;-83
2022/08/20 00:15:54;;;;;;;10.63;6.77;;;22.50;99.90;;;;;;4956146;28;20475;-85
2022/08/20 00:18:25;;;;;;;8.00;6.73;;;22.40;99.90;;;;;;4960608;28;20408;-83
2022/08/20 00:20:54;;;;;;;6.77;6.00;;;22.50;99.90;;;;;;4953291;28;20700;-84
2022/08/20 00:23:22;;;;;;;10.60;6.60;;;22.40;99.90;;;;;;4951599;28;20519;-83
2022/08/20 00:25:50;;;;;;;9.47;6.70;;;22.50;99.90;;;;;;4942019;28;20771;-83
2022/08/20 00:28:18;;;;;;;8.27;7.33;;;22.40;99.90;;;;;;4971160;28;20449;-81
2022/08/20 00:30:46;;;;;;;7.00;5.50;;;22.50;99.90;;;;;;4961130;28;20445;-83
2022/08/20 00:33:20;;;;;;;10.90;7.83;;;22.60;99.90;;;;;;4961829;28;20445;-84
2022/08/20 00:35:50;;;;;;;9.90;6.90;;;22.70;99.90;;;;;;4958192;28;20476;-83
2022/08/20 00:38:18;;;;;;;6.40;5.80;;;22.70;99.90;;;;;;4962471;29;20514;-82
2022/08/20 00:40:54;;;;;;;9.80;7.60;;;22.60;99.90;;;;;;4959725;28;20446;-83
2022/08/20 00:43:45;;;;;;;8.63;7.17;;;22.40;99.90;;;;;;4949501;29;20420;-83
2022/08/20 00:46:23;;;;;;;7.97;6.23;;;22.30;99.90;;;;;;4956816;28;20514;-84
2022/08/20 00:48:58;;;;;;;7.57;6.83;;;22.30;99.90;;;;;;4963925;28;20438;-85
2022/08/20 00:51:43;;;;;;;8.50;6.83;;;22.50;99.90;;;;;;4972392;28;20460;-84
2022/08/20 00:54:36;;;;;;;11.53;7.73;;;22.40;99.90;;;;;;4960739;28;20496;-84
2022/08/20 00:57:08;;;;;;;8.87;7.93;;;22.50;99.90;;;;;;4957070;29;20514;-83
2022/08/20 00:59:38;;;;;;;8.53;7.63;;;22.60;99.90;;;;;;4955610;28;20422;-83
2022/08/20 01:02:10;;;;;;;7.20;6.43;;;22.60;99.90;;;;;;4963692;28;20484;-83
2022/08/20 01:05:00;;;;;;;6.97;5.60;;;22.50;99.90;;;;;;4977676;28;20441;-83
2022/08/20 01:07:33;;;;;;;8.43;7.53;;;22.50;99.90;;;;;;4969843;28;20438;-84
2022/08/20 01:10:09;;;;;;;7.63;6.80;;;22.60;99.90;;;;;;4953898;29;20419;-83
2022/08/20 01:12:39;;;;;;;8.63;7.37;;;22.60;99.90;;;;;;4965473;28;20444;-84
2022/08/20 01:15:13;;;;;;;10.17;8.17;;;22.70;99.90;;;;;;4969537;28;20422;-84
2022/08/20 01:17:49;;;;;;;10.03;8.27;;;22.70;99.90;;;;;;4962620;28;20961;-84
2022/08/20 01:20:37;;;;;;;10.50;7.23;;;22.60;99.90;;;;;;4954611;28;20424;-84
2022/08/20 01:23:43;;;;;;;7.97;7.20;;;22.60;99.90;;;;;;4957765;28;20457;-85
2022/08/20 01:26:17;;;;;;;14.63;7.17;;;22.60;99.90;;;;;;4960498;28;20512;-83
2022/08/20 01:29:02;;;;;;;9.27;8.27;;;22.70;99.90;;;;;;4954117;28;20443;-84
2022/08/20 01:31:34;;;;;;;11.13;7.93;;;22.10;99.90;;;;;;4950144;28;20554;-83
2022/08/20 01:34:10;;;;;;;13.00;7.20;;;22.00;99.90;;;;;;4949104;28;20480;-84
2022/08/20 01:36:48;;;;;;;9.10;7.23;;;22.30;99.90;;;;;;4960131;28;20466;-84
2022/08/20 01:39:55;;;;;;;17.77;9.00;;;22.40;99.90;;;;;;4961394;28;20587;-83
2022/08/20 01:43:40;;;;;;;11.80;8.70;;;22.50;99.90;;;;;;4947256;28;20472;-84
2022/08/20 01:46:29;;;;;;;9.77;7.93;;;21.80;99.90;;;;;;4948739;28;20778;-77
2022/08/20 01:49:42;;;;;;;9.43;8.50;;;21.70;99.90;;;;;;4951488;28;20713;-81
2022/08/20 01:53:05;;;;;;;8.83;7.87;;;21.40;99.90;;;;;;4942065;28;20787;-83
2022/08/20 01:55:33;;;;;;;13.13;8.27;;;21.60;99.90;;;;;;4948843;28;20452;-82
2022/08/20 01:58:03;;;;;;;10.30;9.07;;;21.70;99.90;;;;;;4954452;28;20441;-83
2022/08/20 02:00:31;;;;;;;14.60;9.27;;;21.80;99.90;;;;;;4969325;28;20435;-84
2022/08/20 02:03:22;;;;;;;11.83;7.97;;;21.80;99.90;;;;;;4947306;28;20524;-83
2022/08/20 02:05:52;;;;;;;12.13;10.83;;;21.90;99.90;;;;;;4947408;28;20461;-82
2022/08/20 02:08:27;;;;;;;16.30;11.00;;;21.80;99.90;;;;;;4955214;29;20816;-83
2022/08/20 02:10:58;;;;;;;9.67;8.67;;;21.60;99.90;;;;;;4950384;28;20440;-81
2022/08/20 02:13:28;;;;;;;10.13;9.10;;;21.40;99.90;;;;;;4950525;28;20815;-83
2022/08/20 02:15:57;;;;;;;13.07;11.80;;;21.30;99.90;;;;;;4955484;28;21108;-83
2022/08/20 02:18:26;;;;;;;14.57;12.03;;;21.20;99.90;;;;;;4953072;28;20750;-83
2022/08/20 02:20:53;;;;;;;18.40;14.23;;;21.10;99.90;;;;;;4955121;29;20817;-84
2022/08/20 02:23:20;;;;;;;19.53;15.30;;;21.10;99.90;;;;;;4953144;28;20543;-83
2022/08/20 02:25:48;;;;;;;17.47;15.63;;;21.20;99.90;;;;;;4954979;29;20455;-79
2022/08/20 02:28:19;;;;;;;20.10;17.83;;;21.20;99.90;;;;;;4965498;28;20456;-84
2022/08/20 02:30:51;;;;;;;21.40;19.00;;;21.40;99.90;;;;;;4958510;28;20433;-81
2022/08/20 02:33:19;;;;;;;19.37;17.33;;;21.30;99.90;;;;;;4951832;28;20459;-84
2022/08/20 02:35:51;;;;;;;24.33;21.83;;;21.40;99.90;;;;;;4955104;28;20428;-84
2022/08/20 02:38:18;;;;;;;23.30;20.97;;;21.40;99.90;;;;;;4959188;28;20424;-82
2022/08/20 02:40:47;;;;;;;24.63;22.03;;;21.40;99.90;;;;;;4958507;28;20632;-84
2022/08/20 02:43:17;;;;;;;34.73;24.53;;;21.60;99.90;;;;;;4956448;29;20457;-83
2022/08/20 02:45:46;;;;;;;26.47;21.70;;;21.70;99.90;;;;;;4955782;28;20461;-83
2022/08/20 02:48:22;;;;;;;29.17;24.47;;;21.70;99.90;;;;;;4959013;28;20525;-84
2022/08/20 02:50:55;;;;;;;28.30;24.30;;;21.70;99.90;;;;;;4964954;28;20519;-82
2022/08/20 02:53:24;;;;;;;25.43;22.73;;;21.70;99.90;;;;;;4960893;28;20453;-83
2022/08/20 02:55:52;;;;;;;26.90;23.67;;;21.80;99.90;;;;;;4953605;28;20711;-79
2022/08/20 02:58:20;;;;;;;26.33;23.53;;;21.60;99.90;;;;;;4955993;28;20419;-80
2022/08/20 03:00:48;;;;;;;28.80;24.33;;;21.40;99.90;;;;;;4955991;28;20437;-83
2022/08/20 03:03:19;;;;;;;34.10;25.83;;;21.50;99.90;;;;;;4958508;29;20457;-80
2022/08/20 03:05:46;;;;;;;30.63;25.00;;;21.40;99.90;;;;;;4957453;28;20436;-81
2022/08/20 03:08:13;;;;;;;28.40;22.90;;;21.30;99.90;;;;;;4957330;28;20424;-81
2022/08/20 03:10:43;;;;;;;29.40;24.37;;;21.20;99.90;;;;;;4953427;28;20449;-80
2022/08/20 03:13:11;;;;;;;25.27;22.53;;;21.30;99.90;;;;;;4952144;28;20592;-82
2022/08/20 03:15:44;;;;;;;34.27;26.60;;;21.30;99.90;;;;;;4951242;29;20460;-79
2022/08/20 03:18:12;;;;;;;29.53;25.87;;;21.30;99.90;;;;;;4958054;28;20425;-82
2022/08/20 03:20:40;;;;;;;30.83;25.43;;;21.40;99.90;;;;;;4958109;28;20524;-81
2022/08/20 03:23:12;;;;;;;29.80;24.57;;;21.60;99.90;;;;;;4952289;28;20482;-84
2022/08/20 03:25:39;;;;;;;29.90;25.77;;;22.00;99.90;;;;;;4954891;28;20480;-82
2022/08/20 03:28:06;;;;;;;31.73;26.37;;;22.20;99.90;;;;;;4953560;29;20569;-83
2022/08/20 03:30:33;;;;;;;29.20;25.30;;;22.30;99.90;;;;;;4957234;28;20791;-83
2022/08/20 03:33:03;;;;;;;34.20;26.57;;;22.20;99.90;;;;;;4953167;28;20452;-84
2022/08/20 03:35:31;;;;;;;30.97;26.40;;;22.00;99.90;;;;;;4949604;28;20435;-82
2022/08/20 03:37:58;;;;;;;31.20;26.33;;;21.80;99.90;;;;;;4965929;28;20791;-82
2022/08/20 03:40:32;;;;;;;31.17;27.00;;;21.60;99.90;;;;;;4973928;28;20418;-83
2022/08/20 03:43:00;;;;;;;31.27;27.87;;;21.50;99.90;;;;;;4965599;28;20519;-82
2022/08/20 03:45:27;;;;;;;30.20;25.90;;;21.70;99.90;;;;;;4957799;28;20483;-84
2022/08/20 03:47:55;;;;;;;34.50;29.17;;;21.60;99.90;;;;;;4961843;28;20468;-84
2022/08/20 03:50:27;;;;;;;32.83;27.83;;;21.60;99.90;;;;;;4964402;28;20496;-84
2022/08/20 03:52:54;;;;;;;33.00;26.70;;;21.60;99.90;;;;;;4953499;29;20836;-83
2022/08/20 03:55:25;;;;;;;31.43;27.40;;;21.80;99.90;;;;;;4959137;28;20428;-84
2022/08/20 03:57:55;;;;;;;32.90;28.60;;;21.90;99.90;;;;;;4949403;29;20494;-82
2022/08/20 04:00:28;;;;;;;30.47;27.27;;;22.10;99.90;;;;;;4943480;28;20662;-81
2022/08/20 04:02:56;;;;;;;32.17;27.57;;;22.00;99.90;;;;;;4954520;28;20571;-85
2022/08/20 04:05:29;;;;;;;39.57;29.43;;;22.00;99.90;;;;;;4957195;28;20445;-85
2022/08/20 04:07:59;;;;;;;31.13;23.10;;;22.10;99.90;;;;;;4954102;28;20757;-85
2022/08/20 04:10:29;;;;;;;31.70;27.03;;;22.10;99.90;;;;;;4948547;28;20423;-83
2022/08/20 04:12:58;;;;;;;35.17;27.80;;;22.00;99.90;;;;;;4949688;28;20423;-83
2022/08/20 04:15:26;;;;;;;33.07;27.60;;;21.80;99.90;;;;;;4965877;28;20848;-85
2022/08/20 04:17:54;;;;;;;33.70;28.50;;;21.80;99.90;;;;;;4949179;28;20796;-83
2022/08/20 04:20:24;;;;;;;29.80;26.47;;;21.90;99.90;;;;;;4943319;28;20572;-84
2022/08/20 04:22:54;;;;;;;31.43;27.00;;;21.80;99.90;;;;;;4947274;28;20514;-84
2022/08/20 04:25:30;;;;;;;35.53;29.60;;;21.90;99.90;;;;;;4956977;28;20457;-84
2022/08/20 04:28:05;;;;;;;30.20;25.43;;;22.20;99.90;;;;;;4941648;29;20756;-83
2022/08/20 04:30:38;;;;;;;31.20;27.80;;;22.10;99.90;;;;;;4952937;28;20428;-84
2022/08/20 04:33:09;;;;;;;32.07;27.60;;;22.20;99.90;;;;;;4951822;28;20539;-84
2022/08/20 04:35:36;;;;;;;32.23;28.10;;;22.50;99.90;;;;;;4976830;28;20417;-86
2022/08/20 04:38:10;;;;;;;32.60;26.93;;;22.60;99.90;;;;;;4975388;28;20477;-84
2022/08/20 04:40:53;;;;;;;32.37;25.73;;;22.70;99.90;;;;;;4949926;28;20627;-84
2022/08/20 04:43:22;;;;;;;34.20;27.13;;;23.00;99.90;;;;;;4957356;28;20521;-85
2022/08/20 04:45:52;;;;;;;30.60;27.40;;;23.00;99.90;;;;;;4953723;28;20624;-84
2022/08/20 04:48:22;;;;;;;33.53;28.33;;;22.80;99.90;;;;;;4950093;28;20478;-83
2022/08/20 04:50:51;;;;;;;31.00;27.60;;;23.00;99.90;;;;;;4951851;29;20712;-83
2022/08/20 04:53:21;;;;;;;28.93;25.60;;;23.10;99.90;;;;;;4957129;28;20424;-80
2022/08/20 04:55:55;;;;;;;31.93;26.50;;;23.00;99.90;;;;;;4949147;28;20411;-81
2022/08/20 04:58:33;;;;;;;39.50;27.20;;;23.10;99.90;;;;;;4961426;28;20653;-82
2022/08/20 05:01:04;;;;;;;37.07;30.40;;;23.00;99.90;;;;;;4951613;29;20511;-80
2022/08/20 05:03:32;;;;;;;35.53;29.07;;;22.70;99.90;;;;;;4956545;28;20468;-81
2022/08/20 05:06:00;;;;;;;32.67;27.10;;;22.90;99.90;;;;;;4957285;28;20691;-80
2022/08/20 05:08:32;;;;;;;32.97;29.03;;;22.90;99.90;;;;;;4952936;29;20463;-81
2022/08/20 05:10:59;;;;;;;37.50;27.97;;;22.80;99.90;;;;;;4953015;29;20453;-81
2022/08/20 05:13:46;;;;;;;35.20;26.40;;;22.80;99.90;;;;;;4954605;28;20751;-81
2022/08/20 05:16:16;;;;;;;37.23;26.13;;;22.70;99.90;;;;;;4957826;28;20764;-81
2022/08/20 05:18:45;;;;;;;34.63;26.13;;;22.80;99.90;;;;;;4951558;29;20495;-81
2022/08/20 05:21:19;;;;;;;33.80;27.60;;;22.90;99.90;;;;;;4955289;28;20419;-81
2022/08/20 05:23:47;;;;;;;31.47;27.43;;;23.00;99.90;;;;;;4961567;28;20420;-83
2022/08/20 05:26:25;;;;;;;29.57;25.57;;;22.80;99.90;;;;;;4965275;28;20891;-85
2022/08/20 05:28:51;;;;;;;35.33;28.77;;;22.80;99.90;;;;;;4959662;28;20802;-83
2022/08/20 05:31:25;;;;;;;34.00;27.73;;;22.80;99.90;;;;;;4942936;28;20498;-80
2022/08/20 05:33:59;;;;;;;32.43;25.80;;;22.90;99.90;;;;;;4965996;28;20428;-80
2022/08/20 05:36:27;;;;;;;31.47;27.00;;;22.70;99.90;;;;;;4962344;28;20512;-82
2022/08/20 05:38:54;;;;;;;33.03;27.97;;;22.60;99.90;;;;;;4961410;28;20442;-83
2022/08/20 05:41:21;;;;;;;32.53;27.83;;;22.40;99.90;;;;;;4960324;28;20596;-83
2022/08/20 05:43:55;;;;;;;34.00;27.57;;;22.40;99.90;;;;;;4950740;29;20431;-81
2022/08/20 05:46:23;;;;;;;29.73;25.30;;;22.30;99.90;;;;;;4957950;28;20524;-82
2022/08/20 05:48:51;;;;;;;33.90;26.60;;;22.10;99.90;;;;;;4969456;28;20494;-82
2022/08/20 05:51:17;;;;;;;34.90;29.63;;;22.10;99.90;;;;;;4972639;28;20426;-82
2022/08/20 05:53:45;;;;;;;34.80;26.20;;;22.10;99.90;;;;;;4967504;28;20776;-81
2022/08/20 05:56:13;;;;;;;36.37;27.83;;;22.10;99.90;;;;;;4966332;28;20487;-81
2022/08/20 05:58:52;;;;;;;32.37;26.73;;;22.20;99.90;;;;;;4953937;28;20424;-82
2022/08/20 06:01:20;;;;;;;28.90;25.80;;;22.50;99.90;;;;;;4965416;28;20479;-81
2022/08/20 06:06:33;;;;;;;35.13;27.07;;;23.00;99.90;;;;;;4961283;28;20851;-81
2022/08/20 06:09:13;;;;;;;38.80;29.20;;;22.90;99.90;;;;;;4961100;28;20429;-83
2022/08/20 06:11:40;;;;;;;35.63;26.40;;;22.90;99.90;;;;;;4961489;28;20445;-81
2022/08/20 06:14:09;;;;;;;31.43;25.47;;;22.90;99.90;;;;;;4949520;29;21089;-82
2022/08/20 06:16:37;;;;;;;33.50;24.23;;;23.10;99.90;;;;;;4947844;29;20424;-82
2022/08/20 06:19:04;;;;;;;33.00;26.70;;;23.20;99.90;;;;;;4954722;29;20961;-82
2022/08/20 06:21:39;;;;;;;35.57;28.07;;;23.30;99.90;;;;;;4960490;28;20762;-82
2022/08/20 06:24:06;;;;;;;32.67;25.87;;;23.30;99.90;;;;;;4959779;29;20454;-81
2022/08/20 06:26:33;;;;;;;32.30;24.13;;;23.30;99.90;;;;;;4960024;28;20487;-82
2022/08/20 06:29:02;;;;;;;33.43;25.73;;;23.30;99.90;;;;;;4957111;29;20420;-82
2022/08/20 06:31:30;;;;;;;34.80;26.40;;;23.40;99.90;;;;;;4957976;28;20450;-82
2022/08/20 06:33:57;;;;;;;33.30;25.70;;;23.60;99.90;;;;;;4953303;29;20450;-81
2022/08/20 06:36:26;;;;;;;28.13;23.17;;;23.70;99.90;;;;;;4960226;28;20483;-82
2022/08/20 06:38:57;;;;;;;29.93;24.03;;;23.80;99.90;;;;;;4967639;28;20501;-83
2022/08/20 06:41:29;;;;;;;37.73;26.27;;;23.60;99.90;;;;;;4957099;28;20427;-82
2022/08/20 06:44:03;;;;;;;31.50;23.20;;;23.50;99.90;;;;;;4961433;28;20499;-82
2022/08/20 06:46:31;;;;;;;36.77;27.53;;;23.50;99.90;;;;;;4961180;28;20422;-80
2022/08/20 06:48:58;;;;;;;29.73;23.50;;;23.70;99.90;;;;;;4965283;28;20459;-81
2022/08/20 06:51:25;;;;;;;36.57;26.40;;;23.80;99.90;;;;;;4968160;28;20480;-80
2022/08/20 06:53:52;;;;;;;37.77;27.97;;;23.80;99.90;;;;;;4965961;28;20473;-81
2022/08/20 06:56:22;;;;;;;36.20;28.20;;;23.60;99.90;;;;;;4961770;28;20423;-80
2022/08/20 06:58:48;;;;;;;34.33;25.40;;;23.80;99.90;;;;;;4962854;28;20490;-81
2022/08/20 07:01:19;;;;;;;31.30;24.13;;;23.90;99.90;;;;;;4962628;28;20430;-83
2022/08/20 07:03:51;;;;;;;35.60;28.60;;;24.10;99.90;;;;;;4957684;28;20438;-82
2022/08/20 07:06:24;;;;;;;29.73;25.13;;;24.10;99.90;;;;;;4952375;28;20411;-81
2022/08/20 07:08:52;;;;;;;33.40;26.13;;;24.20;99.90;;;;;;4969361;28;20456;-84
2022/08/20 07:11:20;;;;;;;34.70;25.30;;;24.20;99.90;;;;;;5138336;23;21129;-79
2022/08/20 07:13:56;;;;;;;34.20;27.50;;;24.40;99.90;;;;;;4954546;29;20771;-86
2022/08/20 07:16:31;;;;;;;32.90;26.00;;;24.70;99.90;;;;;;4959691;29;20411;-84
2022/08/20 07:19:12;;;;;;;30.33;24.07;;;25.00;99.90;;;;;;4957856;28;21065;-82
2022/08/20 07:21:44;;;;;;;31.77;25.20;;;24.80;99.90;;;;;;4960066;28;20466;-82
2022/08/20 07:24:26;;;;;;;32.73;25.57;;;24.80;99.90;;;;;;4952044;29;20444;-84
2022/08/20 07:27:06;;;;;;;35.30;23.30;;;25.00;99.90;;;;;;4959704;29;20408;-82
2022/08/20 07:32:35;;;;;;;33.13;24.67;;;25.10;99.90;;;;;;4962362;29;20434;-81
2022/08/20 07:35:15;;;;;;;25.90;23.13;;;25.40;99.90;;;;;;4975882;28;20439;-84
2022/08/20 07:37:49;;;;;;;28.57;24.40;;;25.40;99.90;;;;;;4954599;28;20477;-85
2022/08/20 07:40:24;;;;;;;30.17;25.70;;;25.40;99.90;;;;;;4953855;28;20479;-83
2022/08/20 07:42:57;;;;;;;31.20;25.07;;;25.40;99.90;;;;;;4963402;29;20456;-83
2022/08/20 07:45:28;;;;;;;30.90;25.20;;;25.40;99.90;;;;;;4950529;29;20443;-81
2022/08/20 07:48:07;;;;;;;32.57;24.27;;;25.50;99.90;;;;;;4954601;28;20422;-84
2022/08/20 07:50:36;;;;;;;30.73;24.57;;;25.90;99.90;;;;;;4953774;28;20426;-84
2022/08/20 07:53:05;;;;;;;30.30;24.27;;;26.10;99.90;;;;;;4946665;28;20467;-82
2022/08/20 07:55:32;;;;;;;29.00;23.17;;;26.00;99.90;;;;;;4946721;28;20601;-81
2022/08/20 07:58:08;;;;;;;30.60;25.37;;;25.90;99.90;;;;;;4958981;28;20460;-82
2022/08/20 08:00:35;;;;;;;27.93;24.73;;;26.00;99.90;;;;;;4949906;28;20632;-82
2022/08/20 08:03:06;;;;;;;27.93;24.63;;;26.30;99.90;;;;;;4954903;29;20532;-80
2022/08/20 08:05:37;;;;;;;27.87;23.20;;;26.50;99.90;;;;;;4957131;28;20424;-82
2022/08/20 08:08:09;;;;;;;30.40;23.70;;;26.80;99.90;;;;;;4949449;28;20458;-83
2022/08/20 08:10:39;;;;;;;30.13;23.63;;;27.00;99.90;;;;;;4957509;28;20445;-83
2022/08/20 08:13:11;;;;;;;31.33;25.03;;;27.20;99.90;;;;;;4959218;28;20769;-85
2022/08/20 08:15:45;;;;;;;32.53;24.27;;;27.10;99.90;;;;;;4951571;29;20453;-82
2022/08/20 08:18:26;;;;;;;25.80;23.00;;;27.20;99.90;;;;;;4954802;28;20477;-82
2022/08/20 08:20:58;;;;;;;26.73;23.47;;;27.40;99.90;;;;;;4950805;29;20422;-82
2022/08/20 08:23:28;;;;;;;25.53;21.90;;;27.70;99.90;;;;;;4949172;29;20428;-82
2022/08/20 08:25:58;;;;;;;24.00;20.50;;;28.40;99.90;;;;;;4953177;29;20452;-82
2022/08/20 08:28:28;;;;;;;26.40;22.17;;;29.30;99.90;;;;;;4946387;29;20485;-83
2022/08/20 08:30:56;;;;;;;23.13;20.80;;;29.90;99.90;;;;;;4948972;28;20482;-83
2022/08/20 08:33:26;;;;;;;25.57;21.60;;;30.70;99.90;;;;;;4966110;28;20486;-83
2022/08/20 08:35:55;;;;;;;21.97;19.70;;;30.80;99.90;;;;;;4949662;28;20456;-81
2022/08/20 08:38:22;;;;;;;23.27;20.57;;;30.30;99.90;;;;;;4951775;28;20493;-84
2022/08/20 08:40:53;;;;;;;26.77;21.37;;;30.80;99.90;;;;;;4959214;28;20537;-83
2022/08/20 08:43:28;;;;;;;24.50;20.17;;;32.00;99.90;;;;;;4957447;29;20512;-84
2022/08/20 08:46:04;;;;;;;25.20;22.07;;;33.30;99.90;;;;;;4958440;28;20452;-84
2022/08/20 08:48:53;;;;;;;23.23;20.83;;;33.00;99.90;;;;;;4953528;28;20440;-83
2022/08/20 08:51:34;;;;;;;24.30;19.73;;;32.30;99.90;;;;;;4958423;28;20415;-82
2022/08/20 08:54:01;;;;;;;21.23;19.00;;;33.30;99.90;;;;;;4957169;28;20449;-83
2022/08/20 08:56:33;;;;;;;21.23;17.50;;;33.20;99.90;;;;;;4962686;29;20433;-78
2022/08/20 08:59:05;;;;;;;25.63;17.10;;;33.00;99.90;;;;;;4959214;28;20446;-85
2022/08/20 09:01:38;;;;;;;19.67;17.77;;;32.40;99.90;;;;;;4981368;28;20434;-83
2022/08/20 09:04:30;;;;;;;21.60;19.30;;;33.20;99.90;;;;;;4963959;28;20435;-81
2022/08/20 09:07:01;;;;;;;22.43;20.23;;;33.50;99.90;;;;;;4964256;28;20433;-81
2022/08/20 09:09:35;;;;;;;25.83;18.40;;;34.60;99.90;;;;;;4971986;28;20441;-82
2022/08/20 09:14:57;;;;;;;21.17;17.37;;;34.00;99.90;;;;;;5021058;23;20520;-81
2022/08/20 09:17:24;;;;;;;18.47;16.40;;;33.10;99.90;;;;;;4967920;28;20683;-83
2022/08/20 09:19:51;;;;;;;21.93;19.13;;;33.10;99.90;;;;;;4966065;28;20473;-83
2022/08/20 09:22:21;;;;;;;18.17;16.20;;;32.80;99.90;;;;;;4977515;28;20444;-81
2022/08/20 09:24:49;;;;;;;20.07;18.00;;;32.40;99.90;;;;;;4976212;28;20486;-82
2022/08/20 09:27:17;;;;;;;22.30;16.83;;;32.20;99.90;;;;;;4965825;28;20452;-83
2022/08/20 09:29:47;;;;;;;19.67;17.67;;;31.70;99.90;;;;;;4967865;28;20477;-81
2022/08/20 09:32:26;;;;;;;19.03;16.90;;;31.70;99.90;;;;;;4966949;28;20450;-84
2022/08/20 09:34:58;;;;;;;20.10;17.33;;;31.50;99.90;;;;;;4973825;28;20519;-84
2022/08/20 09:37:37;;;;;;;21.10;17.57;;;31.40;99.90;;;;;;4964258;28;20449;-85
2022/08/20 09:40:07;;;;;;;19.53;17.50;;;31.30;99.90;;;;;;4964347;28;20503;-84
2022/08/20 09:42:36;;;;;;;22.63;18.73;;;30.90;99.90;;;;;;4969874;28;20440;-82
2022/08/20 09:45:10;;;;;;;28.47;20.30;;;30.90;99.90;;;;;;4959071;28;20519;-83
2022/08/20 09:47:38;;;;;;;18.53;16.63;;;31.40;99.90;;;;;;4963961;28;20463;-85
2022/08/20 09:50:23;;;;;;;21.00;17.53;;;31.70;99.90;;;;;;4972418;28;20440;-83
2022/08/20 09:52:51;;;;;;;25.87;16.90;;;31.50;99.90;;;;;;4963372;28;20475;-83
2022/08/20 09:55:21;;;;;;;22.33;19.33;;;30.90;99.90;;;;;;4973635;28;20799;-83
2022/08/20 09:57:49;;;;;;;20.90;17.70;;;30.80;99.90;;;;;;4974374;28;20488;-83
2022/08/20 10:00:20;;;;;;;23.93;19.17;;;30.80;99.90;;;;;;4966264;28;20418;-83
2022/08/20 10:02:47;;;;;;;21.03;18.80;;;30.70;99.90;;;;;;4954039;28;20440;-83
2022/08/20 10:05:14;;;;;;;23.17;20.73;;;30.30;99.90;;;;;;4955874;28;20437;-83
2022/08/20 10:07:45;;;;;;;22.53;18.77;;;30.30;99.90;;;;;;4969400;28;20446;-82
2022/08/20 10:10:13;;;;;;;19.90;17.83;;;30.40;99.90;;;;;;4965319;28;20446;-83
2022/08/20 10:12:42;;;;;;;20.67;17.20;;;30.40;99.90;;;;;;4962918;28;20629;-85
2022/08/20 10:15:10;;;;;;;21.87;17.63;;;30.30;99.90;;;;;;4975937;28;20435;-84
2022/08/20 10:17:42;;;;;;;19.90;17.80;;;30.30;99.90;;;;;;4967659;28;20462;-83
2022/08/20 10:20:11;;;;;;;19.27;16.37;;;30.00;99.90;;;;;;4965114;28;20849;-82
2022/08/20 10:22:38;;;;;;;24.13;21.23;;;30.00;99.90;;;;;;4964731;28;20474;-83
2022/08/20 10:25:07;;;;;;;23.50;19.90;;;30.20;99.90;;;;;;4967607;28;20542;-83
2022/08/20 10:27:35;;;;;;;22.20;18.10;;;30.80;99.90;;;;;;4962650;28;20497;-83
2022/08/20 10:30:04;;;;;;;20.30;17.93;;;30.90;99.90;;;;;;4968103;28;20679;-83
2022/08/20 10:32:31;;;;;;;21.67;19.17;;;30.90;99.90;;;;;;4960611;28;20460;-83
2022/08/20 10:34:59;;;;;;;21.50;17.77;;;31.40;99.90;;;;;;4963171;28;20445;-84
2022/08/20 10:37:26;;;;;;;18.47;16.60;;;31.50;99.90;;;;;;4963405;28;20508;-82
2022/08/20 10:39:53;;;;;;;20.40;17.80;;;30.90;99.90;;;;;;4955597;28;20501;-83
2022/08/20 10:42:21;;;;;;;20.47;17.80;;;30.20;99.90;;;;;;4956774;28;20507;-81
2022/08/20 10:44:48;;;;;;;20.20;18.00;;;30.10;99.90;;;;;;4963312;28;20446;-83
2022/08/20 10:47:25;;;;;;;22.43;18.37;;;30.30;99.90;;;;;;4965525;28;20940;-84
2022/08/20 10:49:53;;;;;;;18.70;16.80;;;30.80;99.90;;;;;;4963762;28;20532;-81
2022/08/20 10:52:22;;;;;;;18.20;16.30;;;30.40;99.90;;;;;;4963342;28;20439;-82
2022/08/20 10:54:51;;;;;;;18.33;16.40;;;30.50;99.90;;;;;;4968448;28;20611;-82
2022/08/20 10:57:24;;;;;;;19.17;17.03;;;30.30;99.90;;;;;;4955391;28;20703;-82
2022/08/20 10:59:54;;;;;;;22.23;17.07;;;29.80;99.90;;;;;;4957462;28;20486;-81
2022/08/20 11:02:23;;;;;;;21.80;18.10;;;29.80;99.90;;;;;;4964083;28;20488;-82
2022/08/20 11:04:53;;;;;;;24.17;18.07;;;29.50;99.90;;;;;;4967596;28;20446;-82
2022/08/20 11:07:28;;;;;;;20.57;18.37;;;29.30;99.90;;;;;;4970177;28;20439;-81
2022/08/20 11:10:15;;;;;;;19.03;17.17;;;29.80;99.90;;;;;;4960588;28;20430;-82
2022/08/20 11:12:42;;;;;;;21.27;17.40;;;30.10;99.90;;;;;;4953653;28;20811;-82
2022/08/20 11:15:13;;;;;;;27.47;19.77;;;30.10;99.90;;;;;;4957469;28;20442;-82
2022/08/20 11:17:42;;;;;;;19.90;16.40;;;30.00;99.90;;;;;;4967662;28;20445;-82
2022/08/20 11:20:12;;;;;;;19.67;17.77;;;29.80;99.90;;;;;;4969352;28;20489;-82
2022/08/20 11:22:39;;;;;;;23.17;18.67;;;29.30;99.90;;;;;;4960249;28;20636;-82
2022/08/20 11:25:07;;;;;;;22.10;19.73;;;28.80;99.90;;;;;;4957508;29;20437;-81
2022/08/20 11:27:37;;;;;;;19.00;17.10;;;28.90;99.90;;;;;;4951910;28;20461;-81
2022/08/20 11:30:07;;;;;;;20.07;17.90;;;29.00;99.90;;;;;;4959036;28;20605;-82
2022/08/20 11:32:34;;;;;;;21.80;18.17;;;29.00;99.90;;;;;;4959627;28;20456;-80
2022/08/20 11:35:05;;;;;;;20.00;17.77;;;29.30;99.90;;;;;;4964126;28;20454;-79
2022/08/20 11:37:54;;;;;;;21.40;17.50;;;29.20;99.90;;;;;;4956915;28;20448;-82
2022/08/20 11:40:22;;;;;;;21.37;19.13;;;29.20;99.90;;;;;;4962298;28;20705;-81
2022/08/20 11:42:50;;;;;;;20.23;18.03;;;29.40;99.90;;;;;;4956807;28;20481;-80
2022/08/20 11:45:38;;;;;;;20.97;17.17;;;29.60;99.90;;;;;;4962775;28;20471;-81
2022/08/20 11:48:05;;;;;;;20.93;18.80;;;30.00;99.90;;;;;;4962002;28;20450;-79
2022/08/20 11:50:32;;;;;;;23.53;19.43;;;29.20;99.90;;;;;;4960411;28;20467;-82
2022/08/20 11:53:02;;;;;;;20.93;18.27;;;29.20;99.90;;;;;;4955774;29;20650;-82
2022/08/20 11:55:32;;;;;;;17.73;16.03;;;29.70;99.90;;;;;;4965752;28;20762;-83
2022/08/20 11:58:00;;;;;;;21.73;18.33;;;29.70;99.90;;;;;;4962006;28;20528;-81
2022/08/20 12:00:29;;;;;;;20.23;18.10;;;29.40;99.90;;;;;;4968151;28;20436;-84
2022/08/20 12:03:03;;;;;;;20.43;18.10;;;28.90;99.90;;;;;;4967893;28;20716;-81
2022/08/20 12:05:40;;;;;;;25.07;18.70;;;28.40;99.90;;;;;;4958656;28;20486;-77
2022/08/20 12:08:09;;;;;;;20.87;18.57;;;28.30;99.90;;;;;;4961610;28;20575;-80
2022/08/20 12:10:52;;;;;;;24.37;18.70;;;28.20;99.90;;;;;;4966221;28;20518;-81
2022/08/20 12:13:19;;;;;;;20.80;18.70;;;28.10;99.90;;;;;;4962797;28;20457;-80
2022/08/20 12:15:53;;;;;;;19.97;17.97;;;28.30;99.90;;;;;;4956837;28;20461;-80
2022/08/20 12:18:24;;;;;;;18.57;16.63;;;28.60;99.90;;;;;;4947822;29;20515;-82
2022/08/20 12:20:52;;;;;;;20.30;18.13;;;28.50;99.90;;;;;;4948996;28;20450;-83
2022/08/20 12:23:20;;;;;;;20.70;18.60;;;28.50;99.90;;;;;;4954672;28;20632;-82
2022/08/20 12:25:47;;;;;;;21.10;18.90;;;28.50;99.90;;;;;;4957007;28;20476;-80
2022/08/20 12:28:16;;;;;;;19.63;17.53;;;28.60;99.90;;;;;;4942710;28;20420;-82
2022/08/20 12:30:51;;;;;;;21.43;19.13;;;28.50;99.90;;;;;;4955132;28;20484;-82
2022/08/20 12:33:18;;;;;;;19.00;16.93;;;28.80;99.90;;;;;;4957333;28;20772;-81
2022/08/20 12:35:46;;;;;;;19.10;17.10;;;29.00;99.90;;;;;;4964952;28;20441;-82
2022/08/20 12:38:12;;;;;;;18.40;16.30;;;29.20;99.90;;;;;;4952146;28;20445;-81
2022/08/20 12:40:41;;;;;;;20.17;17.97;;;29.10;99.90;;;;;;4956217;28;20457;-80
2022/08/20 12:43:08;;;;;;;20.13;17.70;;;29.00;99.90;;;;;;4961256;28;20539;-79
2022/08/20 12:45:35;;;;;;;18.73;16.77;;;28.80;99.90;;;;;;4956887;28;20521;-80
2022/08/20 12:48:07;;;;;;;20.50;18.37;;;28.70;99.90;;;;;;4959997;28;20464;-79
2022/08/20 12:50:38;;;;;;;23.17;17.63;;;28.40;99.90;;;;;;4959133;28;20463;-77
2022/08/20 12:53:05;;;;;;;21.47;19.27;;;27.80;99.90;;;;;;4963168;28;20449;-80
2022/08/20 12:55:32;;;;;;;22.10;18.07;;;27.50;99.90;;;;;;4960185;28;20442;-80
2022/08/20 12:58:01;;;;;;;19.43;17.37;;;27.60;99.90;;;;;;4968669;28;20414;-81
2022/08/20 13:00:33;;;;;;;18.20;16.40;;;27.70;99.90;;;;;;4958074;28;20539;-80
2022/08/20 13:03:02;;;;;;;19.60;16.00;;;27.90;99.90;;;;;;4954677;28;21133;-81